Skip Navigation LinksHome page > Weather > Current weather Skip Navigation Links

Current Weather

Chicago O'Hare Intl, Chicago

For information only: do not use for flight planning or navigation.
Latest weather
Observation time Thursday, October 23, 2014 3:51 AM CDT
Local time Thursday, October 23, 2014 4:17 AM CDT
Flight conditions Visual Meteorological Conditions
Winds
Wind direction South-Southeast (160°)
Wind speed 6 mph
Visibility 8 mi.
Sky condition
Ceiling unlimited
Sky clear
Temperature 37°F
Dewpoint 35°F
Altimeter 30.22 in.Hg
Pressure change last 3 hours0.03 in.Hg
Pressure falling
Derived measurements
Relative humidity 92%
Wind chill 32°F
Density altitude -1055 ft.
Sea-level pressure 30.23 in.Hg
Remarks
Automated weather observing station with precipitation discriminator.
METAR KORD 230851Z 16005KT 8SM CLR 03/02 A3022 RMK AO2 SLP237 T00280017 57010

Settings

Location code

InnerDrive.Weather 4.0.5399.0 Release CLR 4.0.30319.34014
Copyright ©2014 Inner Drive Technology. All rights reserved. Portions Copyright ©1986-2014 David Braverman.

Find weather

Site navigation


Skip Navigation Links

Place info

Page info

PayPal - The safer, easier way to pay online!

Return home.

Copyright ©2014 Inner Drive Technology. Purveyors of fine, hand-crafted computer software. Page printed 2014-10-23T09:17:21 UTC.